aviador You're here:

UGTB Decoded Metar

TBILISI/NOVO-AL in GEORGIA
Report Time2018-01-19 18:30:00
UTC Time2018-01-19 19:01:12
Flight Rules vfr VFR
Wind310° at 25 kt
W.Decomp.*RWY 31: 24.9 kt HW 1.7 kt LCW
W.Rank310° ranks 1
Current wind is above 310° avg. (17.6)
Visibility9999 m
Phenomena:N/A
Clouds:N/A
Expected CloudBase > 2,000 ft AGL from Temp-Dew spread
CeilingNone
Temp07°C (ISA -5)
Dew Point02°C (71% RH)
AAT-3.7°C
QNH1013 hPa
Density Alt1,155 ft
Elevation1,624 ft
Report Wrong Elevation
Raw Report
METAR UGTB 191830Z 31025KT CAVOK 07/02 Q1013 R31L/CLRD70 NOSIG=

Extra information for UGTB:More info

Metar Taf Metar & Taf Last 4 Metars F.Rules Stats Wind Profile Meteogram Temp Stats Airport Information Weather charts Add Link Nearby VenuesMetar ALERT Operation Metar Decoded Social comments